Resultados de KART DRIVERS 13° ETAPA WHITE DRIVERS / PROVA 7 - 21:00
KARTODROMO INTERNACIONAL GRANJA VIANA KGV RACE TRACKS CIRCUITO - 106
Resultados de KART DRIVERS - 13° ETAPA WHITE DRIVERS / PROVA 7 - 21:00


Pos No. Nome Classe Comentários Voltas Pontos Total Tempo Melhor Tempo na volta. Diff Espaço Melhor Veloc.
1 036 ALGUSTO SABBATO RENTAL 20 0 18:43.618 52.019 16 48,790
2 037 FERNANDO THOMAS RENTAL 20 0 19:01.288 52.045 20 17.670 17.670 48,765
3 030 TOMAZ BRUNO RENTAL 20 0 19:12.051 53.100 17 28.433 10.763 47,797
4 026 DANIEL SICCHIEROLLI RENTAL 20 0 19:15.826 53.116 19 32.208 3.775 47,782
5 020 CLAUDIO FERNANDES RENTAL 20 0 19:20.860 52.814 18 37.242 5.034 48,055
6 001 EVANIL JUNIOR RENTAL 20 0 19:21.415 54.308 19 37.797 0.555 46,733
7 025 LUCIANO YOSHIKAWA RENTAL 20 0 19:23.851 53.240 19 40.233 2.436 47,671
8 011 LAMARK FERREIRA RENTAL 20 0 19:31.609 53.551 19 47.991 7.758 47,394
9 008 LEONARDO MOREIRA RENTAL 20 0 19:33.966 52.630 16 50.348 2.357 48,223
10 004 FERNANDO BARDUCHI RENTAL 20 0 19:36.825 53.729 18 53.207 2.859 47,237
11 027 JOSUEL ROSALINO RENTAL 20 0 19:44.833 53.353 14 1:01.215 8.008 47,570
12 032 JOSIAS GOMES RENTAL 19 0 18:51.318 53.883 15 1 Volta 1 Volta 47,102
13 017 MARCIO COQUE RENTAL 19 0 18:52.909 53.471 11 1 Volta 1.591 47,465
14 028 CAIO SCHUTZ RENTAL 19 0 18:54.562 52.955 14 1 Volta 1.653 47,927
15 045 PLINIO CAMARGO RENTAL 19 0 19:07.928 52.531 19 1 Volta 13.366 48,314
16 007 VALDEMIR SOUZA RENTAL 19 0 19:12.696 53.764 16 1 Volta 4.768 47,206
17 010 GIOVANNI GUIMARAES RENTAL 19 0 19:14.477 54.650 19 1 Volta 1.781 46,441
18 002 RENATO RIBEIRO RENTAL 19 0 19:17.386 55.325 12 1 Volta 2.909 45,874
19 034 GUSTAVO GUIMARAES RENTAL 19 0 19:22.199 53.954 14 1 Volta 4.813 47,040
20 031 PAULO COLOMBINI RENTAL 19 0 19:37.994 54.823 11 1 Volta 15.795 46,294
21 005 RICARDO CHAVES RENTAL 18 0 18:54.660 57.378 7 2 Voltas 1 Volta 44,233
22 038 MARCELO HORA RENTAL 18 0 18:58.984 54.743 18 2 Voltas 4.324 46,362
23 009 JULIO TORRES RENTAL 18 0 19:00.257 55.521 18 2 Voltas 1.273 45,712
24 029 CARLOS SALES RENTAL 17 0 19:26.591 54.578 11 3 Voltas 1 Volta 46,502
25 044 JORGE MARCELINO RENTAL 5 0 5:55.890 56.291 4 15 Voltas 12 Voltas 45,087
Gerada em 13/08/2019 21:35